createdAt,value
2023-01-17T05:02:44.703Z,2.67
2023-01-17T05:05:13.897Z,2.40
2023-01-17T05:07:40.369Z,3.38
2023-01-17T05:10:07.098Z,3.28
2023-01-17T05:12:33.520Z,3.22
2023-01-17T05:14:59.988Z,2.70
2023-01-17T05:17:26.455Z,3.00
2023-01-17T05:19:53.043Z,2.50
2023-01-17T05:22:19.509Z,2.58
2023-01-17T05:24:47.267Z,2.40
2023-01-17T05:27:14.302Z,2.38
2023-01-17T05:29:40.862Z,2.38
2023-01-17T05:32:07.439Z,2.45
2023-01-17T05:34:34.908Z,2.60
2023-01-17T05:37:01.378Z,2.50
2023-01-17T05:39:27.874Z,2.72
2023-01-17T05:42:00.012Z,3.03
2023-01-17T05:44:27.751Z,2.78
2023-01-17T05:46:54.977Z,3.45
2023-01-17T05:49:21.577Z,3.28
2023-01-17T05:51:48.041Z,3.25
2023-01-17T05:54:14.496Z,2.58
2023-01-17T05:56:40.990Z,3.03
2023-01-17T05:59:07.460Z,3.13
2023-01-17T06:01:33.986Z,2.88
2023-01-17T06:04:00.472Z,2.90
2023-01-17T06:06:26.949Z,2.90
2023-01-17T06:08:53.431Z,2.70
2023-01-17T06:11:19.918Z,2.90
2023-01-17T06:13:49.559Z,3.03
2023-01-17T06:18:42.411Z,2.40
2023-01-17T06:21:08.875Z,2.40
2023-01-17T06:23:38.571Z,2.55
2023-01-17T06:28:31.541Z,2.40
2023-01-17T06:30:59.741Z,2.22
2023-01-17T06:33:29.258Z,2.65
2023-01-17T06:35:55.773Z,2.28
2023-01-17T06:38:22.359Z,2.83
2023-01-17T06:40:48.922Z,2.90
2023-01-17T06:43:15.383Z,3.00
2023-01-17T06:45:41.880Z,2.90
2023-01-17T06:48:08.357Z,2.90
2023-01-17T06:50:35.070Z,2.80
2023-01-17T06:53:06.307Z,2.88
2023-01-17T06:55:34.099Z,3.10
2023-01-17T06:58:02.568Z,4.75
2023-01-17T07:00:31.097Z,4.97
2023-01-17T07:02:57.753Z,3.97
2023-01-17T07:05:24.617Z,3.03
2023-01-17T07:07:51.186Z,3.92
2023-01-17T07:10:17.749Z,3.20
2023-01-17T07:12:44.278Z,3.03
2023-01-17T07:15:11.457Z,3.30
2023-01-17T07:17:38.215Z,3.35
2023-01-17T07:20:08.681Z,3.08
2023-01-17T07:22:37.567Z,3.40
2023-01-17T07:25:04.573Z,3.30
2023-01-17T07:27:31.126Z,3.40
2023-01-17T07:29:57.997Z,3.90
2023-01-17T07:32:26.590Z,3.80
2023-01-17T07:34:54.075Z,3.30
2023-01-17T07:37:20.558Z,3.60
2023-01-17T07:39:47.052Z,3.70
2023-01-17T07:42:13.609Z,4.05
2023-01-17T07:44:43.864Z,3.40
2023-01-17T07:47:11.119Z,3.80
2023-01-17T07:49:37.983Z,4.57
2023-01-17T07:52:06.831Z,3.65
2023-01-17T07:54:33.448Z,29.63
2023-01-17T07:57:00.446Z,21.65
2023-01-17T07:59:26.986Z,19.02
2023-01-17T08:01:53.578Z,12.05
2023-01-17T08:04:20.135Z,9.63
2023-01-17T08:06:48.655Z,7.38
2023-01-17T08:09:15.192Z,6.05
2023-01-17T08:11:41.724Z,5.30
2023-01-17T08:14:08.237Z,3.60
2023-01-17T08:16:34.813Z,3.55
2023-01-17T08:19:01.335Z,4.35
2023-01-17T08:21:27.823Z,6.43
2023-01-17T08:23:54.377Z,6.63
2023-01-17T08:26:22.201Z,5.90
2023-01-17T08:29:02.472Z,6.82
2023-01-17T08:31:31.372Z,6.85
2023-01-17T08:33:58.285Z,6.60
2023-01-17T08:36:25.886Z,4.90
2023-01-17T08:38:52.824Z,4.43
2023-01-17T08:41:20.854Z,4.50
2023-01-17T08:43:48.262Z,4.80
2023-01-17T08:46:14.831Z,6.22
2023-01-17T08:48:41.287Z,6.20
2023-01-17T08:51:11.011Z,5.68
2023-01-17T08:56:05.484Z,9.13
2023-01-17T08:58:52.343Z,14.15
2023-01-17T09:01:19.032Z,5.25
2023-01-17T09:03:45.711Z,7.22
2023-01-17T09:06:15.052Z,3.90
2023-01-17T09:08:41.762Z,3.45
2023-01-17T09:11:11.258Z,7.97
2023-01-17T09:13:38.172Z,8.95
2023-01-17T09:16:05.573Z,4.53
2023-01-17T09:18:33.170Z,4.25
2023-01-17T09:20:59.940Z,3.25
2023-01-17T09:23:27.989Z,3.70
2023-01-17T09:25:54.831Z,3.30
2023-01-17T09:28:21.932Z,3.33
2023-01-17T09:30:48.731Z,3.72
2023-01-17T09:33:15.788Z,3.60
2023-01-17T09:35:42.249Z,3.88
2023-01-17T09:38:08.751Z,4.60
2023-01-17T09:40:37.364Z,3.88
2023-01-17T09:43:07.952Z,3.03
2023-01-17T09:45:34.663Z,3.42
2023-01-17T09:48:02.980Z,3.10
2023-01-17T09:50:33.741Z,3.75
2023-01-17T09:53:04.432Z,3.50
2023-01-17T09:55:39.484Z,3.38
2023-01-17T09:58:10.835Z,2.60
2023-01-17T10:00:56.178Z,2.50
2023-01-17T10:03:26.708Z,2.70
2023-01-17T10:06:15.204Z,2.40
2023-01-17T10:08:47.373Z,2.00
2023-01-17T10:11:33.322Z,2.28
2023-01-17T10:14:12.830Z,2.10
2023-01-17T10:16:48.723Z,2.13
2023-01-17T10:19:39.975Z,2.65
2023-01-17T10:22:25.331Z,2.00
2023-01-17T10:25:04.040Z,1.83
2023-01-17T10:27:40.671Z,2.10
2023-01-17T10:30:22.649Z,2.42
2023-01-17T10:32:50.330Z,2.20
2023-01-17T10:35:26.530Z,2.30
2023-01-17T10:37:57.849Z,2.47
2023-01-17T10:40:34.562Z,2.60
2023-01-17T10:43:05.126Z,2.60
2023-01-17T10:45:36.832Z,2.80
2023-01-17T10:48:16.241Z,2.95
2023-01-17T10:51:11.298Z,2.80
2023-01-17T10:54:05.576Z,4.38
2023-01-17T10:56:33.705Z,3.28
2023-01-17T10:59:18.927Z,2.47
2023-01-17T11:01:45.709Z,2.33
2023-01-17T11:04:25.490Z,2.45
2023-01-17T11:07:23.135Z,2.30
2023-01-17T11:09:51.750Z,3.15
2023-01-17T11:12:32.564Z,2.50
2023-01-17T11:15:22.665Z,2.08
2023-01-17T11:18:01.948Z,1.98
2023-01-17T11:20:34.567Z,1.90
2023-01-17T11:23:02.209Z,1.90
2023-01-17T11:25:32.949Z,2.08
2023-01-17T11:28:10.344Z,2.40
2023-01-17T11:30:36.843Z,2.20
2023-01-17T11:33:07.032Z,2.33
2023-01-17T11:35:44.631Z,2.17
2023-01-17T11:38:18.638Z,2.42
2023-01-17T11:40:46.635Z,2.45
2023-01-17T11:43:14.256Z,2.28
2023-01-17T11:45:41.530Z,2.22
2023-01-17T11:48:07.947Z,2.45
2023-01-17T11:50:40.151Z,2.72
2023-01-17T11:53:25.871Z,3.10
2023-01-17T11:56:07.039Z,3.13
2023-01-17T11:58:35.965Z,3.00
2023-01-17T12:01:13.074Z,3.00
2023-01-17T12:03:54.933Z,3.30
2023-01-17T12:06:56.760Z,3.38
2023-01-17T12:09:28.887Z,3.17
2023-01-17T12:12:20.495Z,3.03
2023-01-17T12:14:58.746Z,3.22
2023-01-17T12:17:51.565Z,2.90
2023-01-17T12:20:36.470Z,2.90
2023-01-17T12:23:08.272Z,3.20
2023-01-17T12:25:40.711Z,2.40
2023-01-17T12:28:46.114Z,2.50
2023-01-17T12:31:18.330Z,2.42
2023-01-17T12:34:17.365Z,2.03
2023-01-17T12:37:05.867Z,2.28
2023-01-17T12:39:43.443Z,2.10
2023-01-17T12:42:18.560Z,3.17
2023-01-17T12:44:54.945Z,2.88
2023-01-17T12:47:21.977Z,2.70
2023-01-17T12:49:55.312Z,2.50
2023-01-17T12:52:49.366Z,2.47
2023-01-17T12:55:26.249Z,2.45
2023-01-17T12:57:57.111Z,2.38
2023-01-17T13:00:26.746Z,2.33
2023-01-17T13:02:58.810Z,2.40
2023-01-17T13:05:32.535Z,2.53
2023-01-17T13:08:18.053Z,2.40
2023-01-17T13:10:55.950Z,2.67
2023-01-17T13:13:25.738Z,2.53
2023-01-17T13:15:55.238Z,2.50
2023-01-17T13:21:04.917Z,2.45
2023-01-17T13:23:59.337Z,2.50
2023-01-17T13:26:55.750Z,2.63
2023-01-17T13:29:47.950Z,2.78
2023-01-17T13:32:51.501Z,2.50
2023-01-17T13:35:41.925Z,2.75
2023-01-17T13:38:33.273Z,2.80
2023-01-17T13:41:49.841Z,2.90
2023-01-17T13:44:24.167Z,2.78
2023-01-17T13:46:57.686Z,2.70
2023-01-17T13:49:31.416Z,2.40
2023-01-17T13:52:10.888Z,3.03
2023-01-17T13:54:51.537Z,2.50
2023-01-17T13:57:29.720Z,2.40
2023-01-17T13:59:57.755Z,2.53
2023-01-17T14:02:33.679Z,3.00
2023-01-17T14:05:17.455Z,2.97
2023-01-17T14:08:12.970Z,2.90
2023-01-17T14:11:05.532Z,2.78
2023-01-17T14:13:37.574Z,2.70
2023-01-17T14:16:22.554Z,2.47
2023-01-17T14:18:49.247Z,2.22
2023-01-17T14:21:22.361Z,2.58
2023-01-17T14:24:13.036Z,2.95
2023-01-17T14:26:41.335Z,2.58
2023-01-17T14:29:45.291Z,2.50
2023-01-17T14:32:13.933Z,2.90
2023-01-17T14:34:40.785Z,2.70
2023-01-17T14:37:18.096Z,2.38
2023-01-17T14:39:46.521Z,2.80
2023-01-17T14:42:16.600Z,2.78
2023-01-17T14:45:03.020Z,2.90
2023-01-17T14:47:32.370Z,2.75
2023-01-17T14:50:13.364Z,2.90
2023-01-17T14:52:40.019Z,2.63
2023-01-17T14:55:16.012Z,2.83
2023-01-17T14:57:42.888Z,2.58
2023-01-17T15:00:18.457Z,2.83
2023-01-17T15:02:45.407Z,2.80
2023-01-17T15:05:14.535Z,2.72
2023-01-17T15:07:43.124Z,3.15
2023-01-17T15:10:15.508Z,3.15
2023-01-17T15:12:46.578Z,2.83
2023-01-17T15:15:32.901Z,3.03
2023-01-17T15:18:19.413Z,3.20
2023-01-17T15:20:50.973Z,2.95
2023-01-17T15:23:20.012Z,3.00
2023-01-17T15:25:47.725Z,3.00
2023-01-17T15:28:14.993Z,3.20
2023-01-17T15:31:06.808Z,2.70
2023-01-17T15:33:34.661Z,3.42
2023-01-17T15:36:03.522Z,2.90
2023-01-17T15:38:38.615Z,3.00
2023-01-17T15:41:11.633Z,2.83
2023-01-17T15:43:39.052Z,3.30
2023-01-17T15:46:05.969Z,3.00
2023-01-17T15:48:40.373Z,3.42
2023-01-17T15:51:08.109Z,3.10
2023-01-17T15:53:37.798Z,2.55
2023-01-17T15:58:50.141Z,3.35
2023-01-17T16:01:26.795Z,3.25
2023-01-17T16:03:54.643Z,2.90
2023-01-17T16:06:45.466Z,4.13
2023-01-17T16:09:22.556Z,3.90
2023-01-17T16:11:49.241Z,3.28
2023-01-17T16:14:15.789Z,3.28
2023-01-17T16:16:52.528Z,3.50
2023-01-17T16:19:19.119Z,3.50
2023-01-17T16:21:48.248Z,3.38
2023-01-17T16:24:15.047Z,3.80
2023-01-17T16:26:44.480Z,3.70
2023-01-17T16:29:11.177Z,3.55
2023-01-17T16:31:37.861Z,3.15
2023-01-17T16:34:14.318Z,3.83
2023-01-17T16:36:40.923Z,3.88
2023-01-17T16:39:07.458Z,3.50
2023-01-17T16:41:33.946Z,3.55
2023-01-17T16:44:03.159Z,4.35
2023-01-17T16:46:36.152Z,4.00
2023-01-17T16:49:02.774Z,4.15
2023-01-17T16:51:29.285Z,4.03
2023-01-17T16:53:56.096Z,4.43
2023-01-17T16:56:25.467Z,4.05
2023-01-17T16:58:53.162Z,4.68
2023-01-17T17:01:21.246Z,4.05
2023-01-17T17:03:47.957Z,3.83
2023-01-17T17:06:15.125Z,4.25
2023-01-17T17:08:43.105Z,4.50
2023-01-17T17:11:21.202Z,4.53
2023-01-17T17:13:49.251Z,4.82
2023-01-17T17:16:26.475Z,5.25
2023-01-17T17:19:01.256Z,4.82
2023-01-17T17:21:28.839Z,4.72
2023-01-17T17:23:58.085Z,7.43
2023-01-17T17:26:34.543Z,9.10
2023-01-17T17:29:01.703Z,9.77
2023-01-17T17:31:28.287Z,12.82
2023-01-17T17:34:01.148Z,13.93
2023-01-17T17:36:28.319Z,11.02
2023-01-17T17:38:55.804Z,20.88
2023-01-17T17:41:27.438Z,25.05
2023-01-17T17:44:00.276Z,18.90
2023-01-17T17:46:27.370Z,16.75
2023-01-17T17:48:53.981Z,15.00
2023-01-17T17:51:37.994Z,16.27
2023-01-17T17:54:07.409Z,9.05
2023-01-17T17:56:34.316Z,5.50
2023-01-17T17:59:01.829Z,5.80
2023-01-17T18:01:28.832Z,4.85
2023-01-17T18:03:58.593Z,5.28
2023-01-17T18:08:52.285Z,4.25
2023-01-17T18:11:22.649Z,4.20
2023-01-17T18:13:51.022Z,4.30
2023-01-17T18:16:22.140Z,4.00
2023-01-17T18:18:51.102Z,4.20
2023-01-17T18:21:24.364Z,3.95
2023-01-17T18:23:58.651Z,3.80
2023-01-17T18:26:36.914Z,4.47
2023-01-17T18:29:04.766Z,3.53
2023-01-17T18:31:31.893Z,3.55
2023-01-17T18:34:00.296Z,3.75
2023-01-17T18:36:30.257Z,3.20
2023-01-17T18:38:57.622Z,3.50
2023-01-17T18:41:27.068Z,4.10
2023-01-17T18:43:56.019Z,3.75
2023-01-17T18:46:23.746Z,4.03
2023-01-17T18:48:50.269Z,4.07
2023-01-17T18:51:19.363Z,5.30
2023-01-17T18:53:46.494Z,5.03
2023-01-17T18:56:15.289Z,6.28
2023-01-17T18:58:43.467Z,4.57
2023-01-17T19:01:14.345Z,5.68
2023-01-17T19:03:44.475Z,8.48
2023-01-17T19:06:14.645Z,8.88
2023-01-17T19:08:41.711Z,9.88
2023-01-17T19:11:09.368Z,8.70
2023-01-17T19:13:37.421Z,7.18
2023-01-17T19:16:05.922Z,5.45
2023-01-17T19:18:33.015Z,5.68
2023-01-17T19:21:18.847Z,5.30
2023-01-17T19:23:45.588Z,4.95
2023-01-17T19:26:13.915Z,4.43
2023-01-17T19:28:42.091Z,4.10
2023-01-17T19:31:13.925Z,3.38
2023-01-17T19:33:43.657Z,3.90
2023-01-17T19:38:40.490Z,5.10
2023-01-17T19:41:14.956Z,5.72
2023-01-17T19:43:42.249Z,5.75
2023-01-17T19:46:10.106Z,4.38
2023-01-17T19:48:37.956Z,4.60
2023-01-17T19:51:12.668Z,4.35
2023-01-17T19:53:41.194Z,4.00
2023-01-17T19:56:12.202Z,4.10
2023-01-17T19:58:41.490Z,3.90
2023-01-17T20:01:16.293Z,3.35
2023-01-17T20:03:47.799Z,4.32
2023-01-17T20:06:21.416Z,4.68
2023-01-17T20:08:48.845Z,4.60
2023-01-17T20:11:20.117Z,4.45
2023-01-17T20:13:48.602Z,4.82
2023-01-17T20:16:17.031Z,4.07
2023-01-17T20:18:43.804Z,4.13
2023-01-17T20:21:17.248Z,4.28
2023-01-17T20:23:46.994Z,5.32
2023-01-17T20:28:46.417Z,4.22
2023-01-17T20:31:18.464Z,4.22
2023-01-17T20:33:46.912Z,4.00
2023-01-17T20:36:15.069Z,4.07
2023-01-17T20:38:45.188Z,3.58
2023-01-17T20:41:31.643Z,3.30
2023-01-17T20:44:19.999Z,3.60
2023-01-17T20:46:49.597Z,3.50
2023-01-17T20:49:19.099Z,3.65
2023-01-17T20:51:47.293Z,3.47
2023-01-17T20:54:16.200Z,3.42
2023-01-17T20:56:43.365Z,3.67
2023-01-17T20:59:17.892Z,3.28
2023-01-17T21:01:45.108Z,3.88
2023-01-17T21:04:12.922Z,3.58
2023-01-17T21:06:40.091Z,3.60
2023-01-17T21:09:08.696Z,3.55
2023-01-17T21:11:36.917Z,3.58
2023-01-17T21:14:09.376Z,3.55
2023-01-17T21:16:36.146Z,3.40
2023-01-17T21:19:03.595Z,4.00
2023-01-17T21:21:30.193Z,5.10
2023-01-17T21:23:58.901Z,3.92
2023-01-17T21:26:27.510Z,4.70
2023-01-17T21:29:00.048Z,4.47
2023-01-17T21:31:29.415Z,4.68
2023-01-17T21:34:04.449Z,5.85
2023-01-17T21:36:33.692Z,7.03
2023-01-17T21:39:04.776Z,7.90
2023-01-17T21:41:39.779Z,7.65
2023-01-17T21:44:19.232Z,6.47
2023-01-17T21:46:46.284Z,7.45
2023-01-17T21:49:12.901Z,4.88
2023-01-17T21:51:52.477Z,4.68
2023-01-17T21:54:20.406Z,5.00
2023-01-17T21:57:05.522Z,4.70
2023-01-17T21:59:32.189Z,4.82
2023-01-17T22:16:30.906Z,4.80
2023-01-17T22:18:57.791Z,7.07
2023-01-17T22:21:26.403Z,6.43
2023-01-17T22:23:57.764Z,6.07
2023-01-17T22:26:29.995Z,5.60
2023-01-17T22:28:59.853Z,4.95
2023-01-17T22:31:30.486Z,6.22
2023-01-17T22:34:03.262Z,5.82
2023-01-17T22:36:31.979Z,6.07
2023-01-17T22:39:01.377Z,6.20
2023-01-17T22:41:50.965Z,5.65
2023-01-17T22:44:17.945Z,6.75
2023-01-17T22:46:44.651Z,5.80
2023-01-17T22:49:13.396Z,5.70
2023-01-17T22:51:40.004Z,5.27
2023-01-17T22:54:06.514Z,5.60
2023-01-17T22:56:33.530Z,6.15
2023-01-17T22:59:01.021Z,5.78
2023-01-17T23:01:29.988Z,5.28
2023-01-17T23:04:01.073Z,6.40
2023-01-17T23:06:32.580Z,5.72
2023-01-17T23:09:01.273Z,6.07
2023-01-17T23:11:44.981Z,5.70
2023-01-17T23:14:11.485Z,6.70
2023-01-17T23:17:07.977Z,6.25
2023-01-17T23:19:39.637Z,6.38
2023-01-17T23:22:16.123Z,6.20
2023-01-17T23:25:00.543Z,5.85
2023-01-17T23:27:58.889Z,6.28
2023-01-17T23:30:29.480Z,6.28
2023-01-17T23:32:58.129Z,5.95
2023-01-17T23:35:30.568Z,6.07
2023-01-17T23:38:16.284Z,6.93
2023-01-17T23:40:43.439Z,6.57
2023-01-17T23:43:25.587Z,5.93
2023-01-17T23:45:53.601Z,5.85
2023-01-17T23:48:21.824Z,6.45
2023-01-17T23:50:48.600Z,6.90
2023-01-17T23:53:22.339Z,7.05
2023-01-17T23:55:53.932Z,7.05
2023-01-17T23:58:22.959Z,8.50
